Time;durP1;ratioP1;P1;durP2;ratioP2;P2;SDS_P1;SDS_P2;PMS_P1;PMS_P2;Temp;Humidity;BMP_temperature;BMP_pressure;BME280_temperature;BME280_humidity;BME280_pressure;Samples;Min_cycle;Max_cycle;Signal;HPM_P1;HPM_P2
2023/01/28 00:00:20;;;;;;;3.13;2.83;;;8.10;58.50;;;;;;5033240;28;20457;-69
2023/01/28 00:02:48;;;;;;;2.87;2.63;;;8.00;58.40;;;;;;5020176;28;20269;-69
2023/01/28 00:05:15;;;;;;;2.87;2.53;;;8.10;58.50;;;;;;5012981;28;20565;-69
2023/01/28 00:07:43;;;;;;;4.10;3.47;;;8.10;58.50;;;;;;5013610;28;20943;-70
2023/01/28 00:10:10;;;;;;;3.70;3.40;;;8.00;58.50;;;;;;5015189;28;20469;-70
2023/01/28 00:12:37;;;;;;;3.05;2.75;;;8.10;58.80;;;;;;5030691;28;20318;-69
2023/01/28 00:15:05;;;;;;;3.85;3.20;;;8.10;58.80;;;;;;5042557;28;20293;-70
2023/01/28 00:17:34;;;;;;;3.40;2.67;;;8.10;59.00;;;;;;5052445;28;20324;-70
2023/01/28 00:20:01;;;;;;;3.47;2.60;;;8.10;58.90;;;;;;5041592;28;20507;-70
2023/01/28 00:22:28;;;;;;;3.10;2.80;;;8.10;59.00;;;;;;5021937;28;20453;-70
2023/01/28 00:24:54;;;;;;;3.53;2.97;;;8.10;59.00;;;;;;5026198;28;20694;-70
2023/01/28 00:27:21;;;;;;;3.43;2.87;;;8.10;59.00;;;;;;5015524;28;20541;-70
2023/01/28 00:29:48;;;;;;;3.47;2.60;;;8.10;59.20;;;;;;5017017;28;20453;-70
2023/01/28 00:32:15;;;;;;;2.87;2.57;;;8.10;59.20;;;;;;5015768;28;20520;-70
2023/01/28 00:34:44;;;;;;;2.97;2.67;;;8.10;59.20;;;;;;5026074;28;20450;-70
2023/01/28 00:37:10;;;;;;;2.73;2.53;;;8.10;59.10;;;;;;5023384;28;20577;-70
2023/01/28 00:39:37;;;;;;;2.60;2.20;;;8.10;59.00;;;;;;5012665;28;20939;-70
2023/01/28 00:42:06;;;;;;;3.30;2.83;;;8.10;58.80;;;;;;5013276;28;20537;-70
2023/01/28 00:44:33;;;;;;;3.80;2.40;;;8.10;58.80;;;;;;5027060;28;20479;-70
2023/01/28 00:47:00;;;;;;;2.70;2.33;;;8.10;59.40;;;;;;5013294;28;20543;-70
2023/01/28 00:49:27;;;;;;;3.77;2.43;;;8.10;58.80;;;;;;5014882;28;20457;-70
2023/01/28 00:51:55;;;;;;;2.90;2.60;;;8.10;59.40;;;;;;5017214;28;20527;-69
2023/01/28 00:54:22;;;;;;;2.53;2.33;;;8.00;58.80;;;;;;5026374;28;20195;-69
2023/01/28 00:56:49;;;;;;;3.03;2.72;;;8.10;59.00;;;;;;5016503;28;20453;-69
2023/01/28 00:59:16;;;;;;;3.70;3.10;;;8.10;58.90;;;;;;5012395;28;20230;-69
2023/01/28 01:01:43;;;;;;;3.40;3.10;;;8.00;59.00;;;;;;5011847;28;20485;-69
2023/01/28 01:04:10;;;;;;;4.20;3.53;;;8.10;59.30;;;;;;5022300;28;20500;-69
2023/01/28 01:06:39;;;;;;;4.47;3.22;;;8.00;59.20;;;;;;5017148;28;20489;-70
2023/01/28 01:09:10;;;;;;;3.63;3.25;;;8.10;59.30;;;;;;5028362;28;20629;-69
2023/01/28 01:11:37;;;;;;;3.73;3.13;;;8.10;59.30;;;;;;5014545;28;20223;-69
2023/01/28 01:14:05;;;;;;;4.10;3.17;;;8.00;59.20;;;;;;5028847;28;20937;-70
2023/01/28 01:16:34;;;;;;;3.40;3.10;;;8.00;59.80;;;;;;5024016;28;20456;-69
2023/01/28 01:19:02;;;;;;;3.57;3.00;;;8.20;59.50;;;;;;5018790;28;20485;-70
2023/01/28 01:21:30;;;;;;;4.57;3.00;;;8.10;59.60;;;;;;5017061;28;20460;-70
2023/01/28 01:23:57;;;;;;;3.60;3.10;;;8.00;59.60;;;;;;5022446;28;20512;-70
2023/01/28 01:26:26;;;;;;;3.83;3.20;;;8.00;59.70;;;;;;5024027;28;20453;-69
2023/01/28 01:28:53;;;;;;;3.10;2.80;;;8.10;59.90;;;;;;5012555;28;20451;-70
2023/01/28 01:31:21;;;;;;;3.40;3.10;;;8.00;60.00;;;;;;5029510;28;21009;-70
2023/01/28 01:33:50;;;;;;;3.43;3.03;;;7.90;60.00;;;;;;5024001;28;20213;-69
2023/01/28 01:36:19;;;;;;;3.30;3.00;;;8.00;60.00;;;;;;5024416;28;20533;-69
2023/01/28 01:38:46;;;;;;;3.53;2.87;;;8.00;60.20;;;;;;5016426;28;20500;-69
2023/01/28 01:41:23;;;;;;;3.73;3.07;;;7.90;60.30;;;;;;5015691;28;20913;-69
2023/01/28 01:43:54;;;;;;;3.87;3.20;;;7.80;60.00;;;;;;5021014;28;20801;-70
2023/01/28 01:46:24;;;;;;;3.25;2.95;;;8.00;60.20;;;;;;5031534;28;21040;-70
2023/01/28 01:48:53;;;;;;;4.30;3.40;;;7.90;61.00;;;;;;5033529;28;20294;-70
2023/01/28 01:51:26;;;;;;;4.13;3.30;;;7.90;60.40;;;;;;5031153;28;20294;-69
2023/01/28 01:53:56;;;;;;;2.97;2.67;;;7.90;60.10;;;;;;5030271;28;20346;-71
2023/01/28 01:56:28;;;;;;;3.92;3.50;;;8.00;60.10;;;;;;5018165;28;20287;-69
2023/01/28 01:58:57;;;;;;;3.87;3.50;;;7.90;60.00;;;;;;5015317;28;20231;-71
2023/01/28 02:01:28;;;;;;;3.83;3.05;;;8.00;60.40;;;;;;5022531;28;20866;-70
2023/01/28 02:04:01;;;;;;;4.87;3.00;;;8.00;61.20;;;;;;5021180;28;20223;-70
2023/01/28 02:06:28;;;;;;;3.37;3.07;;;8.00;60.40;;;;;;5015456;28;20486;-70
2023/01/28 02:08:56;;;;;;;4.03;3.50;;;8.00;60.40;;;;;;5015387;28;20445;-70
2023/01/28 02:11:26;;;;;;;3.63;2.90;;;7.90;60.30;;;;;;5015402;28;20322;-70
2023/01/28 02:13:57;;;;;;;3.55;3.17;;;8.00;60.50;;;;;;5030480;28;20737;-70
2023/01/28 02:16:25;;;;;;;3.60;2.85;;;8.00;60.60;;;;;;5030076;28;20297;-71
2023/01/28 02:18:52;;;;;;;4.93;3.50;;;8.00;60.70;;;;;;5034498;28;20234;-70
2023/01/28 02:21:54;;;;;;;4.17;3.27;;;8.00;60.90;;;;;;5031400;28;20198;-70
2023/01/28 02:24:47;;;;;;;4.93;3.93;;;7.90;61.00;;;;;;5035611;28;20472;-70
2023/01/28 02:27:23;;;;;;;3.50;3.20;;;7.90;61.10;;;;;;5032029;28;20529;-69
2023/01/28 02:29:57;;;;;;;3.58;3.20;;;7.90;61.30;;;;;;5014608;28;21243;-70
2023/01/28 02:32:31;;;;;;;4.47;3.70;;;7.90;61.60;;;;;;5031669;28;20215;-69
2023/01/28 02:35:04;;;;;;;4.07;3.67;;;7.90;61.60;;;;;;5019573;28;20554;-69
2023/01/28 02:37:38;;;;;;;3.60;3.27;;;7.90;61.60;;;;;;5029817;28;20245;-69
2023/01/28 02:40:11;;;;;;;4.17;3.77;;;7.90;61.60;;;;;;5024966;28;20779;-69
2023/01/28 02:42:39;;;;;;;4.70;4.05;;;8.00;61.90;;;;;;5030122;28;20458;-69
2023/01/28 02:45:17;;;;;;;4.63;3.57;;;7.90;61.70;;;;;;5031408;28;20249;-69
2023/01/28 02:47:57;;;;;;;4.40;3.70;;;8.00;61.80;;;;;;5017992;28;20441;-70
2023/01/28 02:50:31;;;;;;;3.83;3.43;;;8.00;61.60;;;;;;5030618;28;20477;-71
2023/01/28 02:56:00;;;;;;;4.93;3.63;;;8.00;62.00;;;;;;5023673;28;20524;-71
2023/01/28 02:58:35;;;;;;;4.93;3.60;;;7.90;61.70;;;;;;5021692;28;20568;-69
2023/01/28 03:01:13;;;;;;;4.87;3.80;;;7.90;61.60;;;;;;5022755;28;20195;-69
2023/01/28 03:03:50;;;;;;;4.10;3.45;;;8.00;61.70;;;;;;5015262;28;20556;-70
2023/01/28 03:06:21;;;;;;;4.00;3.30;;;7.90;61.50;;;;;;5031043;28;20240;-70
2023/01/28 03:36:49;;;;;;;3.40;3.10;;;7.90;62.50;;;;;;5019875;28;20724;-70
2023/01/28 03:39:17;;;;;;;3.88;3.28;;;7.80;62.50;;;;;;5031784;28;20237;-70
2023/01/28 03:41:56;;;;;;;4.82;3.13;;;8.00;62.70;;;;;;5031937;28;20242;-70
2023/01/28 03:47:10;;;;;;;3.45;3.15;;;8.00;62.70;;;;;;5032584;28;20237;-70
2023/01/28 03:49:39;;;;;;;3.97;3.30;;;8.00;63.20;;;;;;5031129;28;20817;-70
2023/01/28 03:52:05;;;;;;;3.77;3.13;;;8.00;63.60;;;;;;5031699;28;20293;-70
2023/01/28 03:54:32;;;;;;;3.40;3.10;;;8.00;63.30;;;;;;5015608;28;20553;-70
2023/01/28 03:56:59;;;;;;;3.60;3.10;;;8.00;63.30;;;;;;5020867;28;20441;-70
2023/01/28 03:59:26;;;;;;;3.30;3.00;;;8.00;64.30;;;;;;5033270;28;20485;-70
2023/01/28 04:01:54;;;;;;;3.45;3.15;;;8.00;64.40;;;;;;5029131;28;20337;-70
2023/01/28 04:04:23;;;;;;;4.07;3.17;;;8.00;63.70;;;;;;5024068;28;20249;-69
2023/01/28 04:06:53;;;;;;;3.60;3.30;;;8.10;63.80;;;;;;5019379;28;20998;-70
2023/01/28 04:09:20;;;;;;;4.15;3.75;;;8.10;64.00;;;;;;5013161;28;20512;-71
2023/01/28 04:11:47;;;;;;;3.60;3.30;;;8.10;64.30;;;;;;5017724;28;20201;-71
2023/01/28 04:14:14;;;;;;;3.53;3.23;;;8.10;64.30;;;;;;5025135;28;20879;-69
2023/01/28 04:16:42;;;;;;;3.50;3.20;;;8.00;64.40;;;;;;5052248;28;20455;-71
2023/01/28 04:19:09;;;;;;;3.50;3.20;;;8.10;64.60;;;;;;5031352;28;20481;-69
2023/01/28 04:21:36;;;;;;;3.70;3.40;;;8.10;64.70;;;;;;5032307;28;20449;-71
2023/01/28 04:24:05;;;;;;;4.07;3.50;;;8.10;64.60;;;;;;5013372;28;20465;-71
2023/01/28 04:26:32;;;;;;;3.83;3.30;;;8.20;64.80;;;;;;5016841;28;20769;-71
2023/01/28 04:28:59;;;;;;;3.70;3.40;;;8.20;64.70;;;;;;5031135;28;20918;-71
2023/01/28 04:31:26;;;;;;;4.00;3.60;;;8.20;64.70;;;;;;5028700;28;20450;-69
2023/01/28 04:33:53;;;;;;;3.90;3.50;;;8.10;64.80;;;;;;5023853;28;20571;-69
2023/01/28 04:36:20;;;;;;;3.63;3.33;;;8.20;65.10;;;;;;5038151;28;20485;-70
2023/01/28 04:38:46;;;;;;;4.40;3.40;;;8.20;65.10;;;;;;5018943;28;20482;-70
2023/01/28 04:41:15;;;;;;;4.33;3.93;;;8.20;65.20;;;;;;5012564;28;20570;-71
2023/01/28 04:43:42;;;;;;;3.83;3.43;;;8.20;65.20;;;;;;5029064;28;20549;-71
2023/01/28 04:46:09;;;;;;;4.10;3.67;;;8.20;65.30;;;;;;5012713;28;20472;-70
2023/01/28 04:48:36;;;;;;;3.85;3.45;;;8.20;65.40;;;;;;5016458;28;20454;-71
2023/01/28 04:51:04;;;;;;;3.70;3.40;;;8.20;65.50;;;;;;5012384;28;20660;-70
2023/01/28 04:53:31;;;;;;;4.05;3.47;;;8.20;65.50;;;;;;5022368;28;20958;-70
2023/01/28 04:55:58;;;;;;;3.70;3.40;;;8.20;65.50;;;;;;5017966;28;20286;-70
2023/01/28 04:58:26;;;;;;;4.13;3.73;;;8.20;65.60;;;;;;5029856;28;20487;-70
2023/01/28 05:00:58;;;;;;;3.80;3.50;;;8.20;65.60;;;;;;5030501;28;20456;-70
2023/01/28 05:03:25;;;;;;;3.93;3.63;;;8.20;65.70;;;;;;5020627;28;20480;-69
2023/01/28 05:05:52;;;;;;;3.47;3.13;;;8.20;65.70;;;;;;5027409;28;20560;-70
2023/01/28 05:08:19;;;;;;;4.30;3.90;;;8.20;66.00;;;;;;5033227;28;20829;-70
2023/01/28 05:10:46;;;;;;;4.50;3.53;;;8.00;65.80;;;;;;5023379;28;20540;-69
2023/01/28 05:13:13;;;;;;;3.60;3.30;;;8.20;66.10;;;;;;5021187;28;20485;-70
2023/01/28 05:15:41;;;;;;;4.30;3.90;;;8.20;66.40;;;;;;5033231;28;20461;-71
2023/01/28 05:18:08;;;;;;;4.57;3.93;;;8.20;66.40;;;;;;5026719;28;20452;-71
2023/01/28 05:20:35;;;;;;;5.10;3.90;;;8.20;66.40;;;;;;5025832;28;21220;-69
2023/01/28 05:23:02;;;;;;;4.20;3.80;;;8.20;66.60;;;;;;5025754;28;20886;-71
2023/01/28 05:25:29;;;;;;;4.20;3.80;;;8.20;66.70;;;;;;5030228;28;20199;-70
2023/01/28 05:27:56;;;;;;;4.20;3.67;;;8.20;67.70;;;;;;5019516;28;20445;-70
2023/01/28 05:30:23;;;;;;;3.87;3.57;;;8.20;67.00;;;;;;5031350;28;20560;-71
2023/01/28 05:32:55;;;;;;;4.77;4.00;;;8.10;66.90;;;;;;5032568;28;20488;-71
2023/01/28 05:35:22;;;;;;;3.80;3.40;;;8.10;68.10;;;;;;5027257;28;20478;-71
2023/01/28 05:37:49;;;;;;;4.53;3.93;;;8.10;67.10;;;;;;5019167;28;20569;-71
2023/01/28 05:40:16;;;;;;;4.80;4.17;;;8.10;67.10;;;;;;5021686;28;20496;-69
2023/01/28 05:42:43;;;;;;;4.33;3.93;;;8.10;67.20;;;;;;5026352;28;20514;-70
2023/01/28 05:45:11;;;;;;;4.87;4.10;;;8.20;67.20;;;;;;5036829;28;20499;-71
2023/01/28 05:47:38;;;;;;;4.80;4.20;;;8.10;67.20;;;;;;5037768;28;20453;-71
2023/01/28 05:50:07;;;;;;;4.30;3.87;;;8.10;67.40;;;;;;5034829;28;20916;-70
2023/01/28 05:52:34;;;;;;;4.00;3.60;;;8.10;67.50;;;;;;5035920;28;20455;-70
2023/01/28 05:55:01;;;;;;;3.83;3.50;;;8.10;67.40;;;;;;5045353;28;20475;-70
2023/01/28 05:57:28;;;;;;;4.23;3.83;;;8.10;67.40;;;;;;5041950;28;20238;-70
2023/01/28 05:59:55;;;;;;;5.00;4.00;;;8.10;67.60;;;;;;5038130;28;21154;-71
2023/01/28 06:02:22;;;;;;;4.17;3.77;;;8.10;67.40;;;;;;5033715;28;20475;-69
2023/01/28 06:04:49;;;;;;;4.80;4.10;;;8.10;67.50;;;;;;5031693;28;20477;-70
2023/01/28 06:07:19;;;;;;;4.23;3.80;;;8.10;67.60;;;;;;5037967;28;20270;-70
2023/01/28 06:09:47;;;;;;;4.53;4.13;;;8.10;67.60;;;;;;5038021;28;20984;-70
2023/01/28 06:12:14;;;;;;;4.07;3.67;;;8.10;67.70;;;;;;5038023;28;20465;-71
2023/01/28 06:14:43;;;;;;;3.97;3.57;;;8.10;67.60;;;;;;5041758;28;20525;-71
2023/01/28 06:17:10;;;;;;;3.92;3.58;;;8.10;67.80;;;;;;5045759;28;20527;-71
2023/01/28 06:19:37;;;;;;;4.10;3.70;;;8.10;67.60;;;;;;5036038;28;20309;-71
2023/01/28 06:22:04;;;;;;;4.30;3.90;;;8.20;67.70;;;;;;5034641;28;20461;-70
2023/01/28 06:24:32;;;;;;;5.00;3.97;;;8.10;67.60;;;;;;5028067;28;20546;-70
2023/01/28 06:26:59;;;;;;;4.43;4.03;;;8.10;67.60;;;;;;5014938;28;20454;-70
2023/01/28 06:29:26;;;;;;;4.28;3.88;;;8.10;67.50;;;;;;5015420;28;21078;-71
2023/01/28 06:31:53;;;;;;;4.78;3.97;;;8.00;67.50;;;;;;5017410;28;20623;-69
2023/01/28 06:34:20;;;;;;;4.47;4.07;;;8.10;67.60;;;;;;5026872;28;20199;-69
2023/01/28 06:36:47;;;;;;;4.50;4.10;;;8.00;67.40;;;;;;5022241;28;20226;-70
2023/01/28 06:39:14;;;;;;;5.03;4.27;;;8.10;67.50;;;;;;5018078;28;20581;-70
2023/01/28 06:41:42;;;;;;;4.97;4.20;;;8.10;67.60;;;;;;5034407;28;20508;-70
2023/01/28 06:44:09;;;;;;;4.87;4.37;;;8.10;67.50;;;;;;5020970;28;20563;-69
2023/01/28 06:46:36;;;;;;;5.23;4.73;;;8.00;67.60;;;;;;5024797;28;20463;-70
2023/01/28 06:49:03;;;;;;;5.53;4.75;;;8.20;67.70;;;;;;5031511;28;20453;-71
2023/01/28 06:51:30;;;;;;;4.90;4.45;;;8.10;67.70;;;;;;5018181;28;20704;-70
2023/01/28 06:53:57;;;;;;;4.40;4.00;;;8.10;67.70;;;;;;5024228;28;20226;-71
2023/01/28 06:56:24;;;;;;;5.40;4.90;;;8.10;67.70;;;;;;5027934;28;20325;-69
2023/01/28 06:58:53;;;;;;;5.47;4.85;;;8.10;67.70;;;;;;5013417;28;20262;-68
2023/01/28 07:01:19;;;;;;;4.53;4.13;;;8.10;67.90;;;;;;5015332;28;20235;-70
2023/01/28 07:03:46;;;;;;;4.80;4.30;;;8.10;68.00;;;;;;5014805;28;20310;-70
2023/01/28 07:06:13;;;;;;;5.30;4.80;;;8.10;68.10;;;;;;5026534;28;20230;-69
2023/01/28 07:08:40;;;;;;;4.70;4.28;;;8.10;68.10;;;;;;5033415;28;20206;-70
2023/01/28 07:11:07;;;;;;;6.18;4.72;;;8.10;68.00;;;;;;5025126;28;20238;-69
2023/01/28 07:13:34;;;;;;;5.40;4.90;;;8.10;68.00;;;;;;5014621;28;20235;-70
2023/01/28 07:16:03;;;;;;;5.68;4.97;;;8.10;68.10;;;;;;5033585;28;20231;-71
2023/01/28 07:18:30;;;;;;;5.13;4.53;;;8.10;68.30;;;;;;5017803;28;20262;-70
2023/01/28 07:20:58;;;;;;;4.55;4.13;;;8.10;68.20;;;;;;5028328;28;20308;-70
2023/01/28 07:23:25;;;;;;;4.95;4.55;;;8.10;68.20;;;;;;5030803;28;20246;-70
2023/01/28 07:25:52;;;;;;;4.95;4.45;;;8.10;68.30;;;;;;5032880;28;20199;-69
2023/01/28 07:28:21;;;;;;;5.03;4.53;;;8.10;68.30;;;;;;5028494;28;20705;-69
2023/01/28 07:30:50;;;;;;;5.55;4.93;;;8.10;68.40;;;;;;5031312;28;20554;-70
2023/01/28 07:33:18;;;;;;;5.25;4.75;;;8.10;68.60;;;;;;5030688;28;20718;-69
2023/01/28 07:35:46;;;;;;;6.57;5.20;;;8.10;68.60;;;;;;5022720;28;20222;-71
2023/01/28 07:38:13;;;;;;;5.10;4.60;;;8.10;68.70;;;;;;5026147;28;20544;-71
2023/01/28 07:40:41;;;;;;;6.13;4.95;;;8.10;68.70;;;;;;5030100;28;20491;-69
2023/01/28 07:43:08;;;;;;;5.20;4.70;;;8.10;68.90;;;;;;5014283;28;20223;-69
2023/01/28 07:45:36;;;;;;;4.80;4.27;;;8.10;68.80;;;;;;5013784;28;20227;-69
2023/01/28 07:48:05;;;;;;;4.63;4.20;;;8.10;68.90;;;;;;5023802;28;20966;-69
2023/01/28 07:50:35;;;;;;;4.50;4.10;;;8.00;68.80;;;;;;5030107;28;20449;-69
2023/01/28 07:53:03;;;;;;;4.60;4.17;;;8.10;68.90;;;;;;5028953;28;20452;-70
2023/01/28 07:55:30;;;;;;;4.87;4.27;;;8.10;68.90;;;;;;5013220;28;20477;-71
2023/01/28 07:57:59;;;;;;;4.67;4.10;;;8.10;68.80;;;;;;5015592;28;20460;-72
2023/01/28 08:00:28;;;;;;;4.70;4.20;;;8.30;69.20;;;;;;5032851;28;21037;-71
2023/01/28 08:02:57;;;;;;;4.38;3.92;;;8.10;68.90;;;;;;5033286;28;20556;-72
2023/01/28 08:05:25;;;;;;;4.13;3.73;;;8.10;69.00;;;;;;5015114;28;20294;-72
2023/01/28 08:07:54;;;;;;;4.15;3.70;;;8.10;68.90;;;;;;5013949;28;20555;-72
2023/01/28 08:10:21;;;;;;;5.23;4.40;;;8.10;68.90;;;;;;5013093;28;20203;-72
2023/01/28 08:12:52;;;;;;;4.35;3.65;;;8.10;69.00;;;;;;5019040;28;20449;-72
2023/01/28 08:15:19;;;;;;;4.60;4.20;;;8.00;69.00;;;;;;5044428;28;20206;-71
2023/01/28 08:17:46;;;;;;;4.35;3.95;;;8.10;69.00;;;;;;5033322;28;20856;-71
2023/01/28 08:20:13;;;;;;;5.03;4.47;;;8.10;69.10;;;;;;5014428;28;20252;-71
2023/01/28 08:22:43;;;;;;;4.20;3.80;;;8.10;69.20;;;;;;5017126;28;20225;-72
2023/01/28 08:25:11;;;;;;;4.40;4.00;;;8.10;69.10;;;;;;5036764;28;20204;-72
2023/01/28 08:27:38;;;;;;;4.90;4.35;;;8.10;68.90;;;;;;5028327;28;20542;-72
2023/01/28 08:30:14;;;;;;;4.35;3.90;;;8.20;69.20;;;;;;5030405;28;20202;-71
2023/01/28 08:32:41;;;;;;;4.20;3.80;;;8.20;69.40;;;;;;5019965;28;20233;-71
2023/01/28 08:35:08;;;;;;;4.25;3.85;;;8.20;70.00;;;;;;5014356;28;20560;-71
2023/01/28 08:37:35;;;;;;;5.63;4.67;;;8.10;69.20;;;;;;5023127;28;20209;-71
2023/01/28 08:40:03;;;;;;;5.50;4.25;;;8.20;69.20;;;;;;5031736;28;20572;-71
2023/01/28 08:42:32;;;;;;;5.40;4.80;;;8.20;69.50;;;;;;5031592;28;20399;-71
2023/01/28 08:44:59;;;;;;;4.67;4.13;;;8.20;69.40;;;;;;5028250;28;20568;-71
2023/01/28 08:47:31;;;;;;;4.70;4.30;;;8.20;69.30;;;;;;5027994;28;20452;-70
2023/01/28 08:49:58;;;;;;;4.70;4.20;;;8.20;69.40;;;;;;5027695;28;20721;-72
2023/01/28 08:52:25;;;;;;;4.57;4.18;;;8.20;69.30;;;;;;5031327;28;20483;-72
2023/01/28 08:54:52;;;;;;;5.13;4.30;;;8.30;69.30;;;;;;5030849;28;20216;-72
2023/01/28 08:57:19;;;;;;;5.03;4.28;;;8.30;69.40;;;;;;5029228;28;20552;-72
2023/01/28 08:59:47;;;;;;;5.00;4.57;;;8.20;69.20;;;;;;5016521;28;20536;-72
2023/01/28 09:02:14;;;;;;;5.40;4.53;;;8.30;69.30;;;;;;5012176;28;20474;-72
2023/01/28 09:04:42;;;;;;;4.87;4.37;;;8.30;69.60;;;;;;5018120;28;20490;-71
2023/01/28 09:07:08;;;;;;;5.30;4.20;;;8.30;69.70;;;;;;5029503;28;20488;-71
2023/01/28 09:09:35;;;;;;;6.47;4.88;;;8.30;69.50;;;;;;5017180;28;20450;-71
2023/01/28 09:12:02;;;;;;;6.60;5.37;;;8.30;69.50;;;;;;5012438;28;20701;-71
2023/01/28 09:14:29;;;;;;;8.00;6.87;;;8.30;69.50;;;;;;5020886;28;20455;-71
2023/01/28 09:16:57;;;;;;;8.03;6.83;;;8.30;69.50;;;;;;5036167;28;20481;-71
2023/01/28 09:19:24;;;;;;;7.90;6.27;;;8.40;69.60;;;;;;5011819;28;20471;-71
2023/01/28 09:21:51;;;;;;;8.47;5.90;;;8.40;69.70;;;;;;5021075;28;20458;-71
2023/01/28 09:24:18;;;;;;;6.70;5.77;;;8.40;69.70;;;;;;5010246;28;20479;-71
2023/01/28 09:26:45;;;;;;;5.63;5.03;;;8.40;69.40;;;;;;5011855;28;20523;-71
2023/01/28 09:29:11;;;;;;;5.53;4.80;;;8.40;69.30;;;;;;5011878;28;20474;-71
2023/01/28 09:31:38;;;;;;;6.87;5.20;;;8.40;69.50;;;;;;5024615;28;20454;-71
2023/01/28 09:34:06;;;;;;;5.37;4.60;;;8.50;69.40;;;;;;5030969;28;20984;-71
2023/01/28 09:36:33;;;;;;;5.88;4.38;;;8.50;69.50;;;;;;5029416;28;20969;-70
2023/01/28 09:39:00;;;;;;;5.03;4.53;;;8.50;69.40;;;;;;5030931;28;20213;-71
2023/01/28 09:41:29;;;;;;;4.80;4.30;;;8.50;69.20;;;;;;5021759;28;20573;-72
2023/01/28 09:44:25;;;;;;;5.33;4.70;;;8.60;69.20;;;;;;5019196;28;20962;-71
2023/01/28 09:46:52;;;;;;;5.87;4.57;;;8.60;68.60;;;;;;5031420;28;20528;-72
2023/01/28 09:49:29;;;;;;;5.50;4.63;;;8.60;68.50;;;;;;5028539;28;20999;-71
2023/01/28 09:51:56;;;;;;;4.80;4.30;;;8.60;68.30;;;;;;5023710;28;20457;-71
2023/01/28 09:54:29;;;;;;;5.78;4.82;;;8.70;68.60;;;;;;5017308;28;20553;-70
2023/01/28 09:57:04;;;;;;;17.87;11.30;;;8.60;68.50;;;;;;5015035;28;20314;-71
2023/01/28 09:59:33;;;;;;;18.70;10.83;;;8.70;68.50;;;;;;5018627;28;20452;-71
2023/01/28 10:02:12;;;;;;;5.70;5.00;;;8.70;68.50;;;;;;5035008;28;20478;-71
2023/01/28 10:04:54;;;;;;;5.27;4.60;;;8.70;68.60;;;;;;5029124;28;20203;-71
2023/01/28 10:07:30;;;;;;;4.63;3.83;;;8.70;68.20;;;;;;5030094;28;20486;-72
2023/01/28 10:10:02;;;;;;;4.50;4.10;;;8.70;67.90;;;;;;5022152;28;20731;-72
2023/01/28 10:12:43;;;;;;;4.27;3.87;;;8.70;67.70;;;;;;5022968;28;20450;-72
2023/01/28 10:15:42;;;;;;;6.60;4.40;;;8.70;67.50;;;;;;5030565;28;20559;-72
2023/01/28 10:18:10;;;;;;;4.23;3.83;;;8.70;67.30;;;;;;5029127;28;20449;-70
2023/01/28 10:20:43;;;;;;;5.57;3.93;;;8.70;67.40;;;;;;5023568;28;20515;-71
2023/01/28 10:23:19;;;;;;;4.90;4.40;;;8.70;67.40;;;;;;5026871;28;20472;-72
2023/01/28 10:25:48;;;;;;;4.77;4.27;;;8.70;67.20;;;;;;5030880;28;20470;-71
2023/01/28 10:28:20;;;;;;;5.23;4.73;;;8.70;67.20;;;;;;5014176;28;20547;-72
2023/01/28 10:30:48;;;;;;;5.07;4.43;;;8.70;67.00;;;;;;5033272;28;20469;-72
2023/01/28 10:33:20;;;;;;;4.70;4.20;;;8.70;67.20;;;;;;5015281;28;20450;-72
2023/01/28 10:35:49;;;;;;;6.03;4.23;;;8.60;67.20;;;;;;5014914;28;20944;-72
2023/01/28 10:38:21;;;;;;;4.50;4.07;;;8.60;67.10;;;;;;5014481;28;21235;-71
2023/01/28 10:40:48;;;;;;;4.90;4.40;;;8.60;67.00;;;;;;5026192;28;20489;-72
2023/01/28 10:43:17;;;;;;;4.75;4.28;;;8.70;67.00;;;;;;5016496;28;20470;-72
2023/01/28 10:45:55;;;;;;;4.68;4.25;;;8.60;67.00;;;;;;5012874;28;20211;-71
2023/01/28 10:48:26;;;;;;;4.77;4.07;;;8.70;67.10;;;;;;5018284;28;20195;-72
2023/01/28 10:50:58;;;;;;;4.57;3.97;;;8.70;67.00;;;;;;5030466;28;20467;-73
2023/01/28 10:53:35;;;;;;;5.60;4.20;;;8.70;66.90;;;;;;5025747;28;20997;-72
2023/01/28 10:56:04;;;;;;;4.83;4.13;;;8.70;66.70;;;;;;5015937;28;21003;-72
2023/01/28 10:58:36;;;;;;;4.40;4.00;;;8.70;66.50;;;;;;5023248;28;20535;-72
2023/01/28 11:01:05;;;;;;;4.53;4.10;;;8.70;66.40;;;;;;5019867;28;20211;-71
2023/01/28 11:03:34;;;;;;;4.70;4.20;;;8.70;66.30;;;;;;5030618;28;20858;-72
2023/01/28 11:06:03;;;;;;;4.13;3.73;;;8.80;66.20;;;;;;5012422;28;20573;-71
2023/01/28 11:08:31;;;;;;;4.80;4.23;;;8.80;66.20;;;;;;5028751;28;20459;-71
2023/01/28 11:10:59;;;;;;;4.77;4.33;;;8.80;66.30;;;;;;5025112;28;21178;-71
2023/01/28 11:13:27;;;;;;;4.03;3.63;;;8.80;66.30;;;;;;5013604;28;20536;-72
2023/01/28 11:15:56;;;;;;;4.17;3.77;;;8.80;66.20;;;;;;5032603;28;20464;-72
2023/01/28 11:18:26;;;;;;;4.23;3.83;;;8.80;65.70;;;;;;5028151;28;20474;-72
2023/01/28 11:20:55;;;;;;;7.53;4.23;;;8.70;65.40;;;;;;5020930;28;20644;-72
2023/01/28 11:23:27;;;;;;;4.20;3.80;;;8.70;65.20;;;;;;5028278;28;20453;-71
2023/01/28 11:26:06;;;;;;;4.40;4.00;;;8.70;66.10;;;;;;5021748;28;20456;-72
2023/01/28 11:28:33;;;;;;;4.50;4.10;;;8.70;65.30;;;;;;5031702;28;20514;-72
2023/01/28 11:31:03;;;;;;;5.53;3.97;;;8.70;65.30;;;;;;5041916;28;20759;-71
2023/01/28 11:33:34;;;;;;;4.73;4.17;;;8.70;65.40;;;;;;5033579;28;20481;-71
2023/01/28 11:36:07;;;;;;;4.27;3.87;;;8.80;65.50;;;;;;5024365;28;20974;-71
2023/01/28 11:38:36;;;;;;;5.10;4.40;;;8.70;65.60;;;;;;5026845;28;20454;-71
2023/01/28 11:41:03;;;;;;;4.50;3.97;;;8.80;65.90;;;;;;5021103;28;20480;-71
2023/01/28 11:43:31;;;;;;;5.73;4.80;;;8.80;65.80;;;;;;5033580;28;20493;-70
2023/01/28 11:46:12;;;;;;;5.37;4.27;;;8.80;65.40;;;;;;5033965;28;20459;-71
2023/01/28 11:48:51;;;;;;;6.60;4.07;;;8.80;65.50;;;;;;5024902;28;20474;-71
2023/01/28 11:51:30;;;;;;;4.33;3.93;;;8.90;65.50;;;;;;5030993;28;20569;-71
2023/01/28 11:54:15;;;;;;;4.37;3.90;;;8.90;65.20;;;;;;5032663;28;20485;-72
2023/01/28 11:56:55;;;;;;;3.93;3.60;;;8.80;64.50;;;;;;5032836;28;20452;-70
2023/01/28 11:59:42;;;;;;;3.87;3.50;;;8.80;64.10;;;;;;5015845;28;21127;-70
2023/01/28 12:02:21;;;;;;;4.70;4.28;;;8.80;64.20;;;;;;5028801;28;20461;-71
2023/01/28 12:05:03;;;;;;;4.30;3.90;;;8.80;64.80;;;;;;5031198;28;20211;-71
2023/01/28 12:07:40;;;;;;;4.17;3.77;;;8.80;64.50;;;;;;5018411;28;20612;-71
2023/01/28 12:10:17;;;;;;;3.73;3.43;;;8.90;64.20;;;;;;5030789;28;20484;-72
2023/01/28 12:13:04;;;;;;;3.97;3.40;;;8.90;63.80;;;;;;5015943;28;20474;-72
2023/01/28 12:16:03;;;;;;;4.13;3.73;;;8.90;63.50;;;;;;5040516;28;20480;-71
2023/01/28 12:18:55;;;;;;;4.20;3.80;;;9.00;63.60;;;;;;5022538;28;20449;-71
2023/01/28 12:21:34;;;;;;;5.57;3.50;;;8.90;63.10;;;;;;5028347;28;20539;-71
2023/01/28 12:24:17;;;;;;;4.93;3.57;;;8.90;63.00;;;;;;5026194;28;20531;-71
2023/01/28 12:26:53;;;;;;;4.93;3.80;;;8.90;62.70;;;;;;5022717;28;20459;-71
2023/01/28 12:29:32;;;;;;;6.20;3.90;;;8.90;62.90;;;;;;5018004;28;20480;-71
2023/01/28 12:32:21;;;;;;;3.60;3.30;;;8.90;62.90;;;;;;5011025;28;20472;-71
2023/01/28 12:35:16;;;;;;;3.90;3.50;;;9.00;62.10;;;;;;5017782;28;20871;-70
2023/01/28 12:37:59;;;;;;;4.07;3.40;;;8.90;61.60;;;;;;5019670;28;20540;-70
2023/01/28 12:40:53;;;;;;;4.00;3.50;;;8.90;61.90;;;;;;5029617;28;20945;-72
2023/01/28 12:43:32;;;;;;;3.20;2.90;;;9.00;61.50;;;;;;5002688;28;20453;-73
2023/01/28 12:46:03;;;;;;;9.13;3.43;;;9.00;61.30;;;;;;5029371;28;20468;-72
2023/01/28 12:48:34;;;;;;;4.87;3.60;;;9.00;61.10;;;;;;5028115;28;20988;-72
2023/01/28 12:51:07;;;;;;;4.40;3.40;;;9.10;61.40;;;;;;5027211;28;20799;-72
2023/01/28 12:53:40;;;;;;;4.77;3.47;;;9.10;61.10;;;;;;5031629;28;20538;-72
2023/01/28 12:56:14;;;;;;;3.83;3.30;;;9.10;60.90;;;;;;5019236;28;20456;-71
2023/01/28 12:58:48;;;;;;;5.17;3.57;;;9.10;60.90;;;;;;5021371;28;20485;-71
2023/01/28 13:01:21;;;;;;;3.90;3.30;;;9.10;60.80;;;;;;5023877;28;21016;-72
2023/01/28 13:03:55;;;;;;;3.60;3.27;;;9.10;60.90;;;;;;5015567;28;20505;-73
2023/01/28 13:06:29;;;;;;;3.80;3.50;;;9.10;60.60;;;;;;5025987;28;20485;-73
2023/01/28 13:09:00;;;;;;;3.10;2.80;;;9.00;60.40;;;;;;5031013;28;20544;-73
2023/01/28 13:11:34;;;;;;;3.83;3.43;;;9.00;60.30;;;;;;5031593;28;20548;-72
2023/01/28 13:14:04;;;;;;;3.37;3.07;;;9.10;60.40;;;;;;5033965;28;20441;-70
2023/01/28 13:16:31;;;;;;;5.43;3.70;;;9.10;60.10;;;;;;5034667;28;21106;-70
2023/01/28 13:19:06;;;;;;;4.67;3.63;;;9.00;59.90;;;;;;5026171;28;20473;-71
2023/01/28 13:21:36;;;;;;;3.80;3.40;;;9.10;59.90;;;;;;5012441;28;20487;-72
2023/01/28 13:24:19;;;;;;;4.50;3.63;;;9.10;59.70;;;;;;5024872;28;20556;-71
2023/01/28 13:26:48;;;;;;;3.80;3.50;;;9.10;59.40;;;;;;5011523;28;20537;-72
2023/01/28 13:29:28;;;;;;;3.43;3.07;;;9.10;60.30;;;;;;5029058;28;20544;-71
2023/01/28 13:31:57;;;;;;;4.80;4.37;;;9.10;59.70;;;;;;5030276;28;20444;-73
2023/01/28 13:34:34;;;;;;;4.70;3.93;;;9.10;59.70;;;;;;5023492;28;20479;-71
2023/01/28 13:37:07;;;;;;;3.73;3.33;;;9.10;59.70;;;;;;5017806;28;20454;-70
2023/01/28 13:39:35;;;;;;;3.57;3.27;;;9.20;59.80;;;;;;5055628;28;20543;-72
2023/01/28 13:42:20;;;;;;;3.87;3.30;;;9.20;59.60;;;;;;5054307;28;20495;-71
2023/01/28 13:44:49;;;;;;;3.63;3.20;;;9.10;59.00;;;;;;5021632;28;20445;-71
2023/01/28 13:47:23;;;;;;;4.03;3.37;;;9.10;59.00;;;;;;5021823;28;20513;-71